Time;durP1;ratioP1;P1;durP2;ratioP2;P2;SDS_P1;SDS_P2;PMS_P1;PMS_P2;Temp;Humidity;BMP_temperature;BMP_pressure;BME280_temperature;BME280_humidity;BME280_pressure;Samples;Min_cycle;Max_cycle;Signal;HPM_P1;HPM_P2
2021/12/22 00:00:14;;;;;;;14.60;9.88;;;;;;;-4.25;82.22;97279.08;1684999;84;21608;-82
2021/12/22 00:02:46;;;;;;;12.43;8.48;;;;;;;-4.22;82.05;97276.88;1681027;83;21060;-82
2021/12/22 00:05:10;;;;;;;13.10;8.88;;;;;;;-4.18;82.00;97286.81;1685822;82;21445;-82
2021/12/22 00:07:36;;;;;;;7.15;6.42;;;;;;;-4.15;82.00;97288.39;1682290;84;21009;-82
2021/12/22 00:10:02;;;;;;;23.98;13.05;;;;;;;-4.14;81.80;97284.95;1639834;84;21474;-82
2021/12/22 00:12:27;;;;;;;10.18;7.92;;;;;;;-4.12;81.65;97285.70;1669021;82;21092;-82
2021/12/22 00:14:53;;;;;;;8.28;6.50;;;;;;;-4.13;81.65;97286.59;1676069;84;21076;-82
2021/12/22 00:17:19;;;;;;;7.25;5.50;;;;;;;-4.09;81.73;97287.65;1684319;83;21024;-82
2021/12/22 00:19:45;;;;;;;6.20;4.97;;;;;;;-4.07;81.61;97287.16;1717565;82;21012;-83
2021/12/22 00:22:10;;;;;;;6.53;4.90;;;;;;;-4.10;81.59;97282.20;1703712;83;21406;-83
2021/12/22 00:24:36;;;;;;;5.47;4.97;;;;;;;-4.09;81.61;97277.50;1708770;82;21034;-82
2021/12/22 00:27:03;;;;;;;6.53;4.92;;;;;;;-4.10;81.65;97283.91;1701835;83;21016;-82
2021/12/22 00:29:29;;;;;;;7.83;4.92;;;;;;;-4.13;81.60;97288.69;1710212;83;21055;-82
2021/12/22 00:32:09;;;;;;;7.58;5.30;;;;;;;-4.14;81.54;97281.15;1718686;82;21049;-82
2021/12/22 00:34:27;;;;;;;6.10;5.22;;;;;;;-4.15;81.58;97280.77;1690845;83;21051;-82
2021/12/22 00:36:52;;;;;;;4.95;4.42;;;;;;;-4.17;81.57;97280.84;1715401;81;21549;-82
2021/12/22 00:39:18;;;;;;;7.22;4.90;;;;;;;-4.18;81.48;97282.19;1682683;83;21059;-82
2021/12/22 00:41:44;;;;;;;6.42;4.22;;;;;;;-4.19;81.39;97286.44;1715465;83;21111;-82
2021/12/22 00:44:12;;;;;;;5.92;4.60;;;;;;;-4.23;81.32;97286.20;1714760;81;21116;-82
2021/12/22 00:46:37;;;;;;;5.05;4.55;;;;;;;-4.26;81.31;97283.78;1708391;83;21402;-82
2021/12/22 00:49:03;;;;;;;5.08;4.20;;;;;;;-4.30;81.19;97284.82;1712029;83;20972;-82
2021/12/22 00:51:29;;;;;;;6.70;4.92;;;;;;;-4.33;81.02;97287.05;1687152;83;21060;-82
2021/12/22 00:53:54;;;;;;;4.65;4.20;;;;;;;-4.35;81.25;97285.03;1714434;83;21012;-83
2021/12/22 00:56:21;;;;;;;5.12;4.42;;;;;;;-4.34;81.27;97289.22;1708232;82;21634;-82
2021/12/22 00:58:46;;;;;;;4.33;3.92;;;;;;;-4.36;81.13;97287.20;1702419;83;21012;-82
2021/12/22 01:01:12;;;;;;;4.87;4.37;;;;;;;-4.36;81.18;97289.73;1696367;82;21141;-82
2021/12/22 01:03:38;;;;;;;5.62;4.90;;;;;;;-4.40;81.07;97286.93;1711731;82;21115;-82
2021/12/22 01:06:04;;;;;;;5.25;4.75;;;;;;;-4.42;81.23;97282.38;1713518;83;21091;-82
2021/12/22 01:08:30;;;;;;;6.10;4.53;;;;;;;-4.42;81.19;97283.64;1717109;82;21612;-82
2021/12/22 01:10:56;;;;;;;5.78;4.58;;;;;;;-4.39;81.28;97291.14;1711755;83;21170;-82
2021/12/22 01:13:22;;;;;;;28.02;15.38;;;;;;;-4.36;81.21;97304.95;1711638;83;20995;-82
2021/12/22 01:15:48;;;;;;;35.28;17.67;;;;;;;-4.44;80.65;97311.23;1712770;83;20992;-82
2021/12/22 01:18:18;;;;;;;25.88;14.68;;;;;;;-4.43;80.56;97308.63;1713219;82;21012;-82
2021/12/22 01:23:20;;;;;;;8.38;5.75;;;;;;;-4.40;80.57;97316.55;1711632;81;21020;-82
2021/12/22 01:25:48;;;;;;;4.20;3.83;;;;;;;-4.42;80.52;97319.16;1710787;82;21040;-82
2021/12/22 01:28:15;;;;;;;4.35;3.95;;;;;;;-4.44;80.62;97328.55;1713735;82;21070;-82
2021/12/22 01:30:45;;;;;;;82.25;42.30;;;;;;;-4.42;80.75;97324.67;1714974;82;20987;-82
2021/12/22 01:33:11;;;;;;;56.75;31.30;;;;;;;-4.45;80.05;97328.63;1719349;82;21039;-83
2021/12/22 01:35:37;;;;;;;83.27;42.85;;;;;;;-4.48;80.41;97330.85;1717784;83;21047;-82
2021/12/22 01:38:03;;;;;;;22.37;12.28;;;;;;;-4.42;80.58;97326.77;1717844;81;21442;-82
2021/12/22 01:40:29;;;;;;;7.53;4.72;;;;;;;-4.38;80.82;97335.92;1710715;83;20968;-82
2021/12/22 01:42:56;;;;;;;18.20;11.28;;;;;;;-4.36;81.02;97337.94;1713610;83;21043;-82
2021/12/22 01:51:48;;;;;;;63.42;33.75;;;;;;;-4.26;80.90;97335.80;1709621;82;21121;-82
2021/12/22 01:54:48;;;;;;;55.83;30.52;;;;;;;-4.30;80.88;97335.56;1696860;83;21364;-82
2021/12/22 01:57:15;;;;;;;46.90;25.02;;;;;;;-4.31;80.84;97337.73;1713686;81;21103;-82
2021/12/22 01:59:43;;;;;;;67.92;36.23;;;;;;;-4.29;81.22;97345.64;1712835;83;21033;-82
2021/12/22 02:02:10;;;;;;;54.38;30.80;;;;;;;-4.26;81.09;97346.77;1713839;81;21548;-82
2021/12/22 02:04:38;;;;;;;57.23;31.97;;;;;;;-4.22;81.23;97347.94;1719568;83;21080;-82
2021/12/22 02:07:04;;;;;;;55.03;29.60;;;;;;;-4.17;81.34;97347.28;1701352;83;20988;-82
2021/12/22 02:10:01;;;;;;;34.43;20.17;;;;;;;-4.14;81.48;97347.96;1704769;83;21123;-82
2021/12/22 02:12:07;;;;;;;37.50;21.07;;;;;;;-4.08;81.47;97346.85;1716611;82;21158;-82
2021/12/22 02:14:34;;;;;;;32.20;18.80;;;;;;;-4.00;81.70;97341.00;1716775;83;21175;-82
2021/12/22 02:17:02;;;;;;;26.68;16.17;;;;;;;-3.88;81.68;97343.45;1709004;81;21507;-82
2021/12/22 02:19:27;;;;;;;28.17;16.67;;;;;;;-3.89;80.97;97337.55;1712714;83;20993;-82
2021/12/22 02:21:57;;;;;;;23.45;13.85;;;;;;;-3.86;81.21;97341.20;1710443;82;20997;-82
2021/12/22 02:24:21;;;;;;;26.25;14.65;;;;;;;-3.85;80.99;97342.03;1712495;83;21391;-82
2021/12/22 02:27:03;;;;;;;25.80;15.48;;;;;;;-3.81;81.15;97339.27;1714368;83;21024;-83
2021/12/22 02:29:33;;;;;;;25.17;14.45;;;;;;;-3.74;81.31;97338.11;1715707;82;20984;-82
2021/12/22 02:32:01;;;;;;;21.12;13.78;;;;;;;-3.68;81.11;97335.28;1712777;82;21036;-82
2021/12/22 02:34:19;;;;;;;17.25;13.65;;;;;;;-3.72;80.81;97335.50;1707390;83;21051;-82
2021/12/22 02:36:45;;;;;;;25.68;14.65;;;;;;;-3.73;80.86;97337.67;1702527;83;21088;-82
2021/12/22 02:39:12;;;;;;;22.52;13.48;;;;;;;-3.68;80.96;97340.36;1693446;82;21049;-83
2021/12/22 02:41:38;;;;;;;23.67;14.05;;;;;;;-3.66;80.79;97342.38;1705803;83;21027;-82
2021/12/22 02:44:07;;;;;;;27.15;15.80;;;;;;;-3.66;80.83;97338.57;1702803;82;21023;-82
2021/12/22 02:46:35;;;;;;;25.57;15.78;;;;;;;-3.65;81.07;97347.02;1707104;82;21019;-82
2021/12/22 02:49:03;;;;;;;21.25;13.98;;;;;;;-3.70;80.81;97349.77;1715372;81;21096;-82
2021/12/22 02:51:29;;;;;;;20.23;14.05;;;;;;;-3.66;81.18;97347.46;1713313;83;21533;-82
2021/12/22 02:54:20;;;;;;;22.98;14.90;;;;;;;-3.59;81.29;97344.17;1718674;82;21071;-82
2021/12/22 03:04:51;;;;;;;20.82;13.68;;;;;;;-3.68;80.80;97340.81;1685382;82;20983;-83
2021/12/22 03:07:16;;;;;;;19.52;13.03;;;;;;;-3.73;80.86;97343.57;1706214;82;21394;-82
2021/12/22 03:09:41;;;;;;;16.12;12.35;;;;;;;-3.76;80.70;97342.86;1710026;83;21060;-82
2021/12/22 03:12:11;;;;;;;19.17;14.15;;;;;;;-3.81;80.71;97340.55;1696674;82;21024;-82
2021/12/22 03:14:37;;;;;;;23.47;14.10;;;;;;;-3.83;80.95;97342.78;1699229;83;21402;-82
2021/12/22 03:17:03;;;;;;;22.65;14.98;;;;;;;-3.85;81.04;97339.48;1689990;83;21041;-82
2021/12/22 03:19:32;;;;;;;15.43;11.10;;;;;;;-3.87;81.01;97341.28;1714699;83;21104;-82
2021/12/22 03:22:04;;;;;;;21.55;13.60;;;;;;;-3.92;81.16;97339.75;1713243;82;21106;-82
2021/12/22 03:24:27;;;;;;;18.80;11.80;;;;;;;-3.97;81.10;97338.32;1704807;83;21483;-82
2021/12/22 03:26:53;;;;;;;19.32;13.22;;;;;;;-4.02;81.18;97334.73;1695053;83;20996;-83
2021/12/22 03:29:19;;;;;;;21.73;12.47;;;;;;;-4.04;81.31;97339.05;1720055;82;21457;-82
2021/12/22 03:31:46;;;;;;;15.83;10.95;;;;;;;-4.04;81.52;97343.31;1703004;82;21000;-82
2021/12/22 03:34:12;;;;;;;22.13;13.68;;;;;;;-4.04;81.67;97342.04;1714070;83;22245;-82
2021/12/22 03:36:38;;;;;;;23.27;14.43;;;;;;;-4.03;81.68;97341.14;1709441;83;20984;-82
2021/12/22 03:39:05;;;;;;;18.15;14.75;;;;;;;-4.00;81.90;97337.20;1687349;82;21093;-82
2021/12/22 03:41:31;;;;;;;19.82;13.43;;;;;;;-3.97;82.00;97340.86;1717970;83;21023;-82
2021/12/22 03:43:57;;;;;;;20.25;15.40;;;;;;;-3.95;82.23;97349.23;1720311;81;20996;-82
2021/12/22 03:46:22;;;;;;;22.55;17.17;;;;;;;-3.93;82.15;97343.63;1707327;82;21515;-82
2021/12/22 03:48:48;;;;;;;20.10;14.58;;;;;;;-3.95;82.19;97342.88;1701901;82;21134;-83
2021/12/22 03:51:14;;;;;;;16.30;11.38;;;;;;;-3.92;82.04;97349.91;1704246;83;21043;-82
2021/12/22 03:53:40;;;;;;;15.95;11.35;;;;;;;-3.88;82.25;97348.08;1706390;81;21095;-82
2021/12/22 03:56:06;;;;;;;13.95;10.28;;;;;;;-3.85;82.09;97351.73;1710482;83;21081;-82
2021/12/22 03:58:31;;;;;;;19.30;12.30;;;;;;;-3.86;81.87;97353.08;1711700;81;21001;-83
2021/12/22 04:00:57;;;;;;;15.80;12.03;;;;;;;-3.79;82.29;97358.24;1706669;83;21448;-82
2021/12/22 04:03:28;;;;;;;14.93;10.85;;;;;;;-3.74;82.15;97350.81;1707632;82;21016;-83
2021/12/22 04:05:52;;;;;;;17.00;12.45;;;;;;;-3.67;82.37;97354.70;1701079;82;21071;-82
2021/12/22 04:08:18;;;;;;;16.15;11.18;;;;;;;-3.58;82.54;97354.74;1704618;83;21068;-82
2021/12/22 04:10:47;;;;;;;15.85;11.68;;;;;;;-3.55;82.02;97352.05;1705457;81;21478;-82
2021/12/22 04:13:13;;;;;;;17.87;12.07;;;;;;;-3.52;82.11;97356.98;1711983;83;21003;-82
2021/12/22 04:15:39;;;;;;;19.95;12.70;;;;;;;-3.52;82.17;97359.97;1712392;83;21070;-82
2021/12/22 04:18:05;;;;;;;15.55;10.98;;;;;;;-3.47;82.31;97352.50;1714672;83;21421;-82
2021/12/22 04:20:31;;;;;;;18.20;12.43;;;;;;;-3.44;82.02;97354.89;1712461;83;21044;-82
2021/12/22 04:22:59;;;;;;;19.92;12.50;;;;;;;-3.43;81.71;97352.73;1715060;83;21096;-82
2021/12/22 04:25:24;;;;;;;21.73;12.40;;;;;;;-3.37;81.70;97349.09;1719310;82;21084;-82
2021/12/22 04:28:03;;;;;;;27.45;15.60;;;;;;;-3.34;81.17;97354.03;1711625;82;21093;-82
2021/12/22 04:30:26;;;;;;;26.50;14.60;;;;;;;-3.37;81.13;97360.08;1711681;81;21047;-82
2021/12/22 04:32:52;;;;;;;29.70;16.32;;;;;;;-3.33;81.40;97356.49;1706576;82;21099;-82
2021/12/22 04:35:17;;;;;;;35.17;18.98;;;;;;;-3.30;81.34;97355.52;1703276;82;21045;-82
2021/12/22 04:37:43;;;;;;;29.23;16.23;;;;;;;-3.30;81.21;97358.52;1722592;82;21482;-82
2021/12/22 04:40:10;;;;;;;20.77;12.45;;;;;;;-3.30;81.05;97364.41;1698860;82;21079;-82
2021/12/22 04:42:36;;;;;;;22.02;14.63;;;;;;;-3.28;81.04;97356.72;1711503;82;21091;-82
2021/12/22 04:45:06;;;;;;;21.23;14.35;;;;;;;-3.37;80.98;97358.81;1711576;83;21083;-82
2021/12/22 04:47:33;;;;;;;19.65;12.80;;;;;;;-3.30;81.26;97360.60;1707372;83;21068;-82
2021/12/22 04:50:01;;;;;;;26.80;15.25;;;;;;;-3.27;81.20;97360.91;1719425;81;21123;-82
2021/12/22 04:52:36;;;;;;;23.00;16.30;;;;;;;-3.26;80.98;97360.83;1714210;82;21049;-82
2021/12/22 04:55:04;;;;;;;22.20;15.53;;;;;;;-3.30;80.80;97365.69;1714652;82;21034;-82
2021/12/22 04:57:31;;;;;;;30.65;16.62;;;;;;;-3.26;81.08;97368.45;1722729;82;21038;-82
2021/12/22 04:59:58;;;;;;;29.70;17.35;;;;;;;-3.25;80.81;97365.05;1708720;83;20992;-82
2021/12/22 05:02:24;;;;;;;26.17;17.73;;;;;;;-3.25;80.63;97368.86;1719361;82;21416;-83
2021/12/22 05:04:50;;;;;;;24.90;18.05;;;;;;;-3.34;80.65;97368.00;1718695;82;21004;-83
2021/12/22 05:07:16;;;;;;;30.27;18.27;;;;;;;-3.37;80.92;97376.60;1721069;82;21071;-82
2021/12/22 05:09:41;;;;;;;33.25;20.80;;;;;;;-3.36;80.85;97364.72;1709710;82;22153;-82
2021/12/22 05:12:08;;;;;;;32.38;21.50;;;;;;;-3.42;80.80;97373.46;1710367;83;21057;-82
2021/12/22 05:14:34;;;;;;;35.25;19.67;;;;;;;-3.46;80.97;97371.11;1714742;83;21109;-83
2021/12/22 05:17:03;;;;;;;28.05;18.20;;;;;;;-3.51;80.76;97374.32;1711593;81;21166;-82
2021/12/22 05:19:27;;;;;;;32.90;20.15;;;;;;;-3.55;80.94;97374.09;1724559;82;21064;-82
2021/12/22 05:21:53;;;;;;;36.85;22.20;;;;;;;-3.59;81.13;97372.56;1710923;83;21071;-82
2021/12/22 05:24:20;;;;;;;42.80;28.50;;;;;;;-3.62;81.24;97377.34;1711176;83;21384;-82
2021/12/22 05:26:46;;;;;;;47.75;28.10;;;;;;;-3.56;81.61;97373.72;1712983;81;21058;-82
2021/12/22 05:29:12;;;;;;;39.27;24.75;;;;;;;-3.51;81.68;97375.14;1716165;83;21607;-82
2021/12/22 05:31:38;;;;;;;39.35;22.67;;;;;;;-3.45;81.57;97372.30;1715610;83;21427;-82
2021/12/22 05:34:04;;;;;;;39.35;24.07;;;;;;;-3.49;81.45;97372.08;1709807;81;21145;-83
2021/12/22 05:36:30;;;;;;;39.95;23.15;;;;;;;-3.45;81.68;97376.56;1707337;81;21120;-82
2021/12/22 05:38:56;;;;;;;42.75;23.42;;;;;;;-3.43;81.54;97376.05;1703063;83;21415;-82
2021/12/22 05:41:22;;;;;;;37.67;23.83;;;;;;;-3.50;81.44;97372.98;1711721;83;21111;-82
2021/12/22 05:43:48;;;;;;;42.78;24.25;;;;;;;-3.57;81.37;97374.62;1714957;83;21077;-82
2021/12/22 05:46:14;;;;;;;68.15;28.80;;;;;;;-3.62;81.61;97373.53;1697114;83;21107;-82
2021/12/22 05:48:40;;;;;;;457.47;161.37;;;;;;;-3.57;81.80;97377.98;1676071;83;21497;-83
2021/12/22 05:51:06;;;;;;;558.30;209.85;;;;;;;-3.60;82.01;97373.46;1672708;83;21049;-82
2021/12/22 05:53:32;;;;;;;93.27;37.38;;;;;;;-3.58;81.97;97376.33;1681211;83;21074;-82
2021/12/22 05:55:58;;;;;;;60.00;26.62;;;;;;;-3.66;81.84;97381.75;1683108;82;21078;-82
2021/12/22 05:58:24;;;;;;;59.08;25.85;;;;;;;-3.73;81.85;97383.38;1711686;82;21104;-82
2021/12/22 06:00:50;;;;;;;244.05;97.45;;;;;;;-3.78;82.14;97389.92;1708116;83;21106;-82
2021/12/22 06:03:16;;;;;;;195.40;70.05;;;;;;;-3.77;82.21;97394.55;1716043;82;21465;-82
2021/12/22 06:05:42;;;;;;;267.23;78.97;;;;;;;-3.77;82.34;97397.09;1706647;83;21052;-82
2021/12/22 06:08:08;;;;;;;58.05;28.60;;;;;;;-3.70;82.59;97401.84;1705874;82;21410;-82
2021/12/22 06:10:34;;;;;;;174.72;56.45;;;;;;;-3.71;82.43;97403.18;1721474;81;21001;-82
2021/12/22 06:13:05;;;;;;;181.40;56.85;;;;;;;-3.73;82.51;97408.33;1701480;82;20992;-81
2021/12/22 06:15:32;;;;;;;76.25;34.83;;;;;;;-3.68;82.77;97404.30;1690746;83;21039;-82
2021/12/22 06:17:59;;;;;;;489.57;184.72;;;;;;;-3.70;82.50;97409.45;1714376;82;21007;-81
2021/12/22 06:20:25;;;;;;;514.32;159.43;;;;;;;-3.73;82.54;97412.59;1709497;83;21476;-81
2021/12/22 06:22:51;;;;;;;153.00;51.65;;;;;;;-3.70;82.74;97413.72;1716910;83;21015;-81
2021/12/22 06:25:19;;;;;;;97.02;37.23;;;;;;;-3.68;82.62;97419.55;1713845;82;21012;-81
2021/12/22 06:27:45;;;;;;;52.80;28.15;;;;;;;-3.71;82.57;97419.69;1706521;81;21453;-81
2021/12/22 06:30:11;;;;;;;97.53;36.70;;;;;;;-3.73;82.64;97420.21;1713534;83;21011;-82
2021/12/22 06:32:37;;;;;;;212.40;86.57;;;;;;;-3.77;82.68;97427.12;1708288;82;21562;-81
2021/12/22 06:35:03;;;;;;;101.45;44.63;;;;;;;-3.73;82.83;97429.10;1707905;83;21153;-81
2021/12/22 06:37:29;;;;;;;337.40;90.20;;;;;;;-3.74;82.82;97433.80;1710960;81;21451;-82
2021/12/22 06:39:55;;;;;;;157.97;53.78;;;;;;;-3.70;82.96;97434.03;1713671;83;21070;-81
2021/12/22 06:42:23;;;;;;;140.30;45.83;;;;;;;-3.69;83.06;97435.23;1703085;83;21122;-81
2021/12/22 06:44:50;;;;;;;155.03;52.40;;;;;;;-3.68;82.86;97443.23;1701941;82;21419;-81
2021/12/22 06:47:16;;;;;;;239.65;93.97;;;;;;;-3.70;82.77;97446.73;1712486;82;21053;-81
2021/12/22 06:49:41;;;;;;;142.10;51.42;;;;;;;-3.75;82.76;97452.44;1692320;83;21140;-81
2021/12/22 06:52:07;;;;;;;115.70;45.03;;;;;;;-3.80;82.79;97453.92;1708487;82;21399;-81
2021/12/22 06:54:33;;;;;;;143.28;47.55;;;;;;;-3.76;83.22;97454.61;1704083;83;21038;-81
2021/12/22 06:57:00;;;;;;;99.00;38.45;;;;;;;-3.78;82.99;97456.39;1708332;82;21443;-81
2021/12/22 06:59:27;;;;;;;72.72;36.68;;;;;;;-3.78;83.12;97457.66;1706838;81;21068;-81
2021/12/22 07:01:53;;;;;;;92.42;38.20;;;;;;;-3.79;82.98;97457.28;1716347;80;21074;-81
2021/12/22 07:04:18;;;;;;;48.02;27.00;;;;;;;-3.81;82.99;97462.88;1715698;82;21106;-81
2021/12/22 07:06:46;;;;;;;73.10;33.42;;;;;;;-3.84;82.97;97466.83;1722926;81;21375;-81
2021/12/22 07:09:12;;;;;;;99.90;39.13;;;;;;;-3.83;83.06;97470.57;1716970;80;21453;-81
2021/12/22 07:11:38;;;;;;;131.43;47.40;;;;;;;-3.84;83.11;97468.10;1706644;83;21015;-81
2021/12/22 07:14:06;;;;;;;91.20;35.65;;;;;;;-3.79;83.36;97474.62;1700147;83;21441;-81
2021/12/22 07:16:32;;;;;;;95.17;34.95;;;;;;;-3.72;83.45;97478.55;1700832;82;21137;-81
2021/12/22 07:18:58;;;;;;;41.45;25.12;;;;;;;-3.65;83.34;97473.57;1707091;83;21102;-81
2021/12/22 07:21:24;;;;;;;138.70;61.28;;;;;;;-3.70;83.16;97465.78;1698046;82;21035;-82
2021/12/22 07:23:50;;;;;;;105.72;40.50;;;;;;;-3.68;83.13;97477.52;1711009;81;21025;-81
2021/12/22 07:26:16;;;;;;;52.78;29.12;;;;;;;-3.75;82.98;97477.84;1704910;81;21098;-81
2021/12/22 07:28:46;;;;;;;46.45;26.60;;;;;;;-3.80;83.09;97474.69;1720278;81;21075;-81
2021/12/22 07:31:13;;;;;;;61.13;30.15;;;;;;;-3.82;83.24;97479.84;1707503;81;21016;-81
2021/12/22 07:33:50;;;;;;;96.25;40.35;;;;;;;-3.79;83.48;97484.78;1700782;83;21036;-81
2021/12/22 07:36:16;;;;;;;41.98;22.85;;;;;;;-3.69;83.77;97480.13;1689620;83;21079;-80
2021/12/22 07:38:57;;;;;;;41.65;25.15;;;;;;;-3.69;83.38;97482.67;1684339;83;21018;-80
2021/12/22 07:41:23;;;;;;;54.45;31.10;;;;;;;-3.74;83.28;97484.59;1710828;81;21035;-80
2021/12/22 07:43:49;;;;;;;54.60;30.25;;;;;;;-3.76;83.33;97489.72;1699286;82;21027;-81
2021/12/22 07:46:15;;;;;;;54.48;30.17;;;;;;;-3.75;83.50;97486.73;1710701;83;21443;-80
2021/12/22 07:48:41;;;;;;;59.48;29.20;;;;;;;-3.68;83.82;97494.48;1714994;83;21121;-80
2021/12/22 07:51:07;;;;;;;83.07;35.17;;;;;;;-3.56;83.97;97493.13;1716479;82;21106;-80
2021/12/22 07:53:33;;;;;;;86.25;36.03;;;;;;;-3.50;83.63;97496.66;1709054;82;21054;-81
2021/12/22 07:55:59;;;;;;;75.03;34.95;;;;;;;-3.48;83.57;97496.13;1713874;81;21582;-80
2021/12/22 07:58:25;;;;;;;53.10;31.30;;;;;;;-3.51;83.42;97492.02;1705314;81;21102;-82
2021/12/22 08:00:52;;;;;;;51.30;28.85;;;;;;;-3.49;83.62;97505.48;1707826;81;21054;-82
2021/12/22 08:03:18;;;;;;;126.50;48.83;;;;;;;-3.48;83.49;97496.95;1713248;82;21501;-82
2021/12/22 08:05:44;;;;;;;83.20;37.38;;;;;;;-3.40;83.71;97501.27;1700022;82;21044;-82
2021/12/22 08:08:11;;;;;;;103.67;41.70;;;;;;;-3.36;83.44;97498.96;1711812;83;21114;-81
2021/12/22 08:10:37;;;;;;;83.90;38.40;;;;;;;-3.35;83.48;97501.05;1715165;83;21419;-82
2021/12/22 08:13:03;;;;;;;71.80;37.00;;;;;;;-3.24;83.70;97509.48;1719025;82;21418;-82
2021/12/22 08:15:29;;;;;;;71.55;35.15;;;;;;;-3.27;83.43;97504.05;1705873;82;21015;-82
2021/12/22 08:17:55;;;;;;;173.95;74.40;;;;;;;-3.25;83.49;97508.66;1708432;81;20984;-81
2021/12/22 08:20:21;;;;;;;107.20;58.68;;;;;;;-3.16;83.60;97508.22;1711575;83;21078;-82
2021/12/22 08:22:47;;;;;;;91.78;43.78;;;;;;;-3.17;83.44;97507.84;1710873;83;21470;-82
2021/12/22 08:25:13;;;;;;;115.62;43.45;;;;;;;-3.16;83.25;97508.66;1709653;83;20995;-81
2021/12/22 08:27:38;;;;;;;78.12;36.38;;;;;;;-3.20;83.16;97509.70;1717562;81;21091;-82
2021/12/22 08:30:06;;;;;;;112.03;46.77;;;;;;;-3.21;83.27;97506.34;1707662;81;21092;-82
2021/12/22 08:32:33;;;;;;;61.95;33.70;;;;;;;-3.22;83.31;97512.77;1710467;81;21505;-81
2021/12/22 08:35:01;;;;;;;86.37;41.68;;;;;;;-3.22;83.23;97512.77;1693162;83;21068;-82
2021/12/22 08:40:14;;;;;;;46.18;30.43;;;;;;;-3.19;83.54;97521.08;1710085;83;21058;-83
2021/12/22 08:42:39;;;;;;;78.10;38.45;;;;;;;-3.13;83.44;97519.52;1700333;83;21076;-83
2021/12/22 08:45:05;;;;;;;72.30;36.95;;;;;;;-3.07;83.62;97519.25;1717357;83;20966;-83
2021/12/22 08:47:31;;;;;;;45.63;28.45;;;;;;;-3.09;83.24;97526.58;1706939;82;21557;-83
2021/12/22 08:49:57;;;;;;;45.08;29.20;;;;;;;-3.09;83.37;97525.31;1698845;82;21032;-83
2021/12/22 08:52:23;;;;;;;47.03;29.87;;;;;;;-3.02;83.57;97521.12;1719679;81;21062;-82
2021/12/22 08:54:49;;;;;;;44.48;28.98;;;;;;;-2.99;83.58;97521.88;1702607;82;21046;-83
2021/12/22 08:57:16;;;;;;;50.48;30.48;;;;;;;-2.92;83.48;97528.34;1713127;81;20984;-83
2021/12/22 08:59:41;;;;;;;44.75;29.63;;;;;;;-2.88;83.47;97517.13;1711273;81;21525;-82
2021/12/22 09:02:07;;;;;;;47.75;30.75;;;;;;;-2.88;83.45;97518.41;1711189;81;21064;-82
2021/12/22 09:04:33;;;;;;;37.08;24.98;;;;;;;-2.85;83.42;97523.34;1703857;83;21107;-83
2021/12/22 09:06:59;;;;;;;40.90;26.12;;;;;;;-2.82;83.59;97528.28;1695393;82;21043;-83
2021/12/22 09:09:25;;;;;;;77.87;37.70;;;;;;;-2.81;83.51;97527.38;1687104;82;21059;-83
2021/12/22 09:11:51;;;;;;;44.00;27.17;;;;;;;-2.77;83.57;97519.98;1712654;81;21566;-82
2021/12/22 09:14:20;;;;;;;42.90;30.77;;;;;;;-2.73;83.57;97528.69;1708664;81;21268;-83
2021/12/22 09:16:45;;;;;;;43.98;29.60;;;;;;;-2.70;83.43;97526.44;1703194;81;21055;-82
2021/12/22 09:19:11;;;;;;;46.48;31.65;;;;;;;-2.74;83.30;97532.58;1705229;82;21995;-82
2021/12/22 09:21:39;;;;;;;41.30;27.77;;;;;;;-2.76;83.29;97526.30;1716458;81;21098;-82
2021/12/22 09:24:05;;;;;;;38.42;25.82;;;;;;;-2.73;83.30;97535.50;1709995;81;21757;-82
2021/12/22 09:26:31;;;;;;;38.30;26.07;;;;;;;-2.71;83.44;97533.70;1713388;82;21051;-83
2021/12/22 09:28:58;;;;;;;40.00;27.25;;;;;;;-2.69;83.30;97536.17;1709811;82;21367;-83
2021/12/22 09:31:24;;;;;;;42.95;28.02;;;;;;;-2.74;83.29;97532.13;1706096;81;21422;-82
2021/12/22 09:33:50;;;;;;;34.03;23.00;;;;;;;-2.72;83.29;97537.14;1719682;81;21023;-81
2021/12/22 09:36:16;;;;;;;34.38;22.82;;;;;;;-2.74;83.04;97543.58;1717563;81;21084;-81
2021/12/22 09:38:42;;;;;;;33.63;21.82;;;;;;;-2.79;82.67;97545.94;1711878;82;21015;-81
2021/12/22 09:41:08;;;;;;;28.35;20.37;;;;;;;-2.80;82.55;97546.84;1700110;81;21674;-81
2021/12/22 09:43:34;;;;;;;28.73;17.77;;;;;;;-2.81;82.56;97547.73;1708848;83;21043;-81
2021/12/22 09:46:05;;;;;;;23.10;15.45;;;;;;;-2.78;82.37;97545.04;1703783;81;21067;-81
2021/12/22 09:48:47;;;;;;;24.23;16.05;;;;;;;-2.70;82.00;97546.80;1710109;81;21411;-81
2021/12/22 09:53:27;;;;;;;22.22;14.90;;;;;;;-2.48;81.64;97551.69;1696530;83;21008;-81
2021/12/22 09:55:53;;;;;;;29.23;17.70;;;;;;;-2.37;81.45;97555.83;1718647;81;21018;-81
2021/12/22 09:58:19;;;;;;;28.73;17.62;;;;;;;-2.26;80.93;97548.51;1707141;82;21496;-81
2021/12/22 10:00:46;;;;;;;30.40;19.55;;;;;;;-2.19;80.49;97551.12;1704108;83;21031;-81
2021/12/22 10:03:11;;;;;;;33.92;20.52;;;;;;;-2.10;80.35;97544.77;1710373;81;21016;-81
2021/12/22 10:05:39;;;;;;;29.95;18.95;;;;;;;-1.99;80.30;97544.22;1722474;82;21418;-81
2021/12/22 10:08:21;;;;;;;30.45;18.87;;;;;;;-1.96;79.34;97538.52;1714618;81;21027;-80
2021/12/22 10:10:57;;;;;;;23.83;16.73;;;;;;;-1.88;79.41;97539.42;1668634;84;21091;-80
2021/12/22 10:13:26;;;;;;;26.90;17.32;;;;;;;-1.73;79.43;97541.66;1714789;82;21011;-80
2021/12/22 10:15:55;;;;;;;27.93;19.45;;;;;;;-1.60;78.82;97537.13;1711642;81;21023;-79
2021/12/22 10:18:24;;;;;;;33.28;20.15;;;;;;;-1.47;78.68;97541.13;1718025;82;21067;-80
2021/12/22 10:20:53;;;;;;;31.48;19.20;;;;;;;-1.33;78.53;97540.41;1709509;82;21027;-80
2021/12/22 10:23:27;;;;;;;32.10;20.48;;;;;;;-1.18;78.33;97528.14;1710535;82;21040;-80
2021/12/22 10:26:00;;;;;;;31.17;18.52;;;;;;;-1.10;77.65;97532.84;1702118;82;21393;-80
2021/12/22 10:28:29;;;;;;;25.55;15.98;;;;;;;-1.02;76.85;97534.52;1703945;82;21037;-82
2021/12/22 10:30:58;;;;;;;39.85;23.50;;;;;;;-1.17;76.33;97537.43;1714326;81;21056;-82
2021/12/22 10:33:27;;;;;;;39.35;22.42;;;;;;;-1.37;76.31;97533.38;1705821;82;21027;-83
2021/12/22 10:36:03;;;;;;;31.95;21.48;;;;;;;-1.39;77.04;97532.64;1717300;81;21091;-82
2021/12/22 10:38:31;;;;;;;32.63;22.48;;;;;;;-1.31;77.16;97533.50;1711672;82;21386;-81
2021/12/22 10:41:07;;;;;;;33.92;21.73;;;;;;;-1.22;76.92;97535.13;1723154;83;21393;-81
2021/12/22 10:43:36;;;;;;;23.75;14.75;;;;;;;-1.16;76.71;97532.70;1714297;82;21031;-82
2021/12/22 10:46:05;;;;;;;28.38;18.17;;;;;;;-1.18;75.41;97528.14;1722036;81;21473;-81
2021/12/22 10:51:33;;;;;;;26.27;16.57;;;;;;;-1.02;76.51;97525.59;1710649;81;21079;-82
2021/12/22 10:54:00;;;;;;;25.08;16.35;;;;;;;-0.95;75.52;97526.92;1708460;83;21095;-81
2021/12/22 10:56:32;;;;;;;28.15;18.30;;;;;;;-0.95;74.88;97521.83;1709347;81;21435;-81
2021/12/22 10:59:18;;;;;;;31.60;19.82;;;;;;;-0.96;75.24;97520.18;1705276;81;21414;-82
2021/12/22 11:02:07;;;;;;;30.70;20.43;;;;;;;-0.94;75.31;97523.02;1713325;81;20999;-81
2021/12/22 11:04:31;;;;;;;33.10;19.23;;;;;;;-0.96;75.22;97523.55;1700420;82;21014;-81
2021/12/22 11:07:07;;;;;;;26.85;16.37;;;;;;;-0.90;75.68;97517.28;1690556;82;21035;-82
2021/12/22 11:09:36;;;;;;;29.23;17.75;;;;;;;-0.83;75.11;97516.03;1704611;83;21311;-82
2021/12/22 11:12:05;;;;;;;26.17;16.97;;;;;;;-0.84;75.08;97516.12;1712299;82;21044;-81
2021/12/22 11:14:33;;;;;;;32.55;20.25;;;;;;;-0.82;74.96;97511.75;1713004;81;21062;-82
2021/12/22 11:17:07;;;;;;;32.28;20.82;;;;;;;-0.82;74.50;97520.23;1687829;82;21460;-82
2021/12/22 11:19:38;;;;;;;32.67;21.30;;;;;;;-0.94;73.45;97515.36;1705086;83;21056;-81
2021/12/22 11:22:16;;;;;;;32.28;19.23;;;;;;;-0.98;73.80;97518.14;1719427;81;21198;-82
2021/12/22 11:24:48;;;;;;;22.75;16.30;;;;;;;-0.97;73.95;97518.08;1701308;82;21055;-82
2021/12/22 11:27:19;;;;;;;;;;;;;;;-0.92;73.97;97519.10;1716918;81;21072;-81
2021/12/22 11:29:54;;;;;;;27.42;16.05;;;;;;;-0.95;73.79;97519.27;1707929;82;20132;-80
2021/12/22 11:32:22;;;;;;;26.48;15.83;;;;;;;-0.93;74.27;97519.55;1718149;81;21043;-79
2021/12/22 11:34:51;;;;;;;24.63;16.97;;;;;;;-0.94;74.00;97517.09;1717637;82;21078;-79
2021/12/22 11:37:18;;;;;;;26.85;15.95;;;;;;;-0.95;74.45;97510.34;1713679;82;21019;-79
2021/12/22 11:39:43;;;;;;;24.00;16.30;;;;;;;-1.00;73.36;97507.20;1711464;81;21003;-80
2021/12/22 11:42:10;;;;;;;32.33;18.27;;;;;;;-1.15;72.66;97506.74;1708200;81;21012;-79
2021/12/22 11:44:38;;;;;;;29.85;18.00;;;;;;;-1.19;73.55;97504.81;1702369;83;21048;-79